createdAt,value
2023-04-01T00:00:07.870Z,1.64
2023-04-01T00:02:35.045Z,1.78
2023-04-01T00:05:02.301Z,1.87
2023-04-01T00:07:30.688Z,2.14
2023-04-01T00:09:58.129Z,1.84
2023-04-01T00:12:25.251Z,1.72
2023-04-01T00:14:53.869Z,1.47
2023-04-01T00:17:21.066Z,1.79
2023-04-01T00:19:48.234Z,2.09
2023-04-01T00:22:15.435Z,1.85
2023-04-01T00:24:42.650Z,2.03
2023-04-01T00:27:09.792Z,1.87
2023-04-01T00:29:36.853Z,1.78
2023-04-01T00:32:05.879Z,1.71
2023-04-01T00:34:33.112Z,1.78
2023-04-01T00:37:00.273Z,1.70
2023-04-01T00:39:29.866Z,1.78
2023-04-01T00:41:57.173Z,1.74
2023-04-01T00:44:27.737Z,1.69
2023-04-01T00:46:54.980Z,2.10
2023-04-01T00:49:27.878Z,2.27
2023-04-01T00:51:58.554Z,1.75
2023-04-01T00:54:29.595Z,1.52
2023-04-01T00:57:01.007Z,1.59
2023-04-01T00:59:33.433Z,1.07
2023-04-01T01:02:02.496Z,1.50
2023-04-01T01:04:33.984Z,1.52
2023-04-01T01:07:21.395Z,1.10
2023-04-01T01:10:02.266Z,1.27
2023-04-01T01:12:40.175Z,1.24
2023-04-01T01:15:17.675Z,1.24
2023-04-01T01:17:55.500Z,1.41
2023-04-01T01:20:50.742Z,1.36
2023-04-01T01:23:58.704Z,1.40
2023-04-01T01:26:53.175Z,1.52
2023-04-01T01:29:46.313Z,1.48
2023-04-01T01:32:40.056Z,1.53
2023-04-01T01:35:22.016Z,1.34
2023-04-01T01:37:55.405Z,1.25
2023-04-01T01:40:25.776Z,1.26
2023-04-01T01:42:59.700Z,0.80
2023-04-01T01:45:28.681Z,0.92
2023-04-01T01:47:58.321Z,1.09
2023-04-01T01:50:28.866Z,0.94
2023-04-01T01:53:05.853Z,0.94
2023-04-01T01:55:36.035Z,1.35
2023-04-01T01:58:14.751Z,1.06
2023-04-01T02:00:48.815Z,1.36
2023-04-01T02:03:20.832Z,1.41
2023-04-01T02:05:53.229Z,1.35
2023-04-01T02:08:27.252Z,1.07
2023-04-01T02:11:01.500Z,1.37
2023-04-01T02:13:35.092Z,1.39
2023-04-01T02:16:10.406Z,1.44
2023-04-01T02:18:40.453Z,1.56
2023-04-01T02:21:11.374Z,1.35
2023-04-01T02:23:40.020Z,1.20
2023-04-01T02:26:11.089Z,1.46
2023-04-01T02:28:41.495Z,1.28
2023-04-01T02:31:11.318Z,1.29
2023-04-01T02:33:39.839Z,1.01
2023-04-01T02:36:13.381Z,0.98
2023-04-01T02:38:41.955Z,1.27
2023-04-01T02:41:09.165Z,1.25
2023-04-01T02:43:36.290Z,1.07
2023-04-01T02:46:03.414Z,1.10
2023-04-01T02:48:30.705Z,1.05
2023-04-01T02:50:58.353Z,0.95
2023-04-01T02:53:26.873Z,1.07
2023-04-01T02:55:54.017Z,1.20
2023-04-01T02:58:21.095Z,1.04
2023-04-01T03:00:48.279Z,0.78
2023-04-01T03:03:15.597Z,0.75
2023-04-01T03:05:42.715Z,0.94
2023-04-01T03:08:09.777Z,0.93
2023-04-01T03:10:38.398Z,1.09
2023-04-01T03:13:05.557Z,0.92
2023-04-01T03:15:32.869Z,0.83
2023-04-01T03:18:00.285Z,0.85
2023-04-01T03:20:27.454Z,0.77
2023-04-01T03:22:54.578Z,0.77
2023-04-01T03:25:21.876Z,0.69
2023-04-01T03:27:50.430Z,0.75
2023-04-01T03:30:17.677Z,0.78
2023-04-01T03:32:44.937Z,0.74
2023-04-01T03:35:12.076Z,0.74
2023-04-01T03:37:39.231Z,0.60
2023-04-01T03:40:07.618Z,0.73
2023-04-01T03:42:34.910Z,0.63
2023-04-01T03:45:04.012Z,0.58
2023-04-01T03:47:31.507Z,0.61
2023-04-01T03:49:58.629Z,0.59
2023-04-01T03:52:25.722Z,0.77
2023-04-01T03:54:52.770Z,0.73
2023-04-01T03:57:19.978Z,0.82
2023-04-01T03:59:47.191Z,0.87
2023-04-01T04:02:15.747Z,0.79
2023-04-01T04:04:43.202Z,0.87
2023-04-01T04:07:10.434Z,0.88
2023-04-01T04:09:37.558Z,0.79
2023-04-01T04:12:05.368Z,0.82
2023-04-01T04:14:32.413Z,0.86
2023-04-01T04:16:59.563Z,0.81
2023-04-01T04:19:28.199Z,1.06
2023-04-01T04:21:55.356Z,0.94
2023-04-01T04:24:22.473Z,0.97
2023-04-01T04:26:49.596Z,0.83
2023-04-01T04:29:16.702Z,0.84
2023-04-01T04:31:43.906Z,0.89
2023-04-01T04:34:11.082Z,0.95
2023-04-01T04:36:39.658Z,0.93
2023-04-01T04:39:06.800Z,0.92
2023-04-01T04:41:35.373Z,0.93
2023-04-01T04:44:04.713Z,0.78
2023-04-01T04:46:31.848Z,0.95
2023-04-01T04:48:59.112Z,0.97
2023-04-01T04:51:26.774Z,1.05
2023-04-01T04:53:55.297Z,0.99
2023-04-01T04:56:24.195Z,1.00
2023-04-01T04:58:51.334Z,1.17
2023-04-01T05:01:19.597Z,0.86
2023-04-01T05:03:46.873Z,0.77
2023-04-01T05:06:16.725Z,1.01
2023-04-01T05:08:45.153Z,1.25
2023-04-01T05:11:16.494Z,0.82
2023-04-01T05:13:44.657Z,0.78
2023-04-01T05:16:14.063Z,0.76
2023-04-01T05:18:41.184Z,0.77
2023-04-01T05:21:09.639Z,0.68
2023-04-01T05:23:37.475Z,0.64
2023-04-01T05:26:05.840Z,0.59
2023-04-01T05:28:34.776Z,0.59
2023-04-01T05:31:03.711Z,0.60
2023-04-01T05:33:32.055Z,0.57
2023-04-01T05:36:09.336Z,0.62
2023-04-01T05:38:36.532Z,0.61
2023-04-01T05:41:04.423Z,0.72
2023-04-01T05:43:31.577Z,0.79
2023-04-01T05:46:00.203Z,0.68
2023-04-01T05:48:27.313Z,0.60
2023-04-01T05:50:54.452Z,0.63
2023-04-01T05:53:21.712Z,0.78
2023-04-01T05:55:48.935Z,0.60
2023-04-01T05:58:16.034Z,0.74
2023-04-01T06:00:43.159Z,0.70
2023-04-01T06:03:11.889Z,0.74
2023-04-01T06:05:41.899Z,0.62
2023-04-01T06:08:13.492Z,0.63
2023-04-01T06:10:54.452Z,0.64
2023-04-01T06:13:41.335Z,0.75
2023-04-01T06:16:23.265Z,0.86
2023-04-01T06:19:08.864Z,1.02
2023-04-01T06:22:05.264Z,0.74
2023-04-01T06:24:57.953Z,1.07
2023-04-01T06:27:42.114Z,0.94
2023-04-01T06:30:37.187Z,0.63
2023-04-01T06:33:33.504Z,0.62
2023-04-01T06:36:20.727Z,0.80
2023-04-01T06:39:06.783Z,0.75
2023-04-01T06:42:01.999Z,0.63
2023-04-01T06:44:43.136Z,0.84
2023-04-01T06:47:32.297Z,0.79
2023-04-01T06:50:13.714Z,0.71
2023-04-01T06:52:56.601Z,0.64
2023-04-01T06:55:33.659Z,0.64
2023-04-01T06:58:05.755Z,0.69
2023-04-01T07:00:36.434Z,0.65
2023-04-01T07:03:17.514Z,0.48
2023-04-01T07:05:44.753Z,0.64
2023-04-01T07:08:20.136Z,0.66
2023-04-01T07:10:54.710Z,0.59
2023-04-01T07:13:28.354Z,0.68
2023-04-01T07:16:12.522Z,0.80
2023-04-01T07:18:47.075Z,0.83
2023-04-01T07:21:25.829Z,0.78
2023-04-01T07:24:02.355Z,0.86
2023-04-01T07:26:29.533Z,0.87
2023-04-01T07:28:58.335Z,0.65
2023-04-01T07:31:45.791Z,0.78
2023-04-01T07:34:24.670Z,0.74
2023-04-01T07:37:00.956Z,0.75
2023-04-01T07:39:43.920Z,0.64
2023-04-01T07:42:22.993Z,0.64
2023-04-01T07:45:00.870Z,0.65
2023-04-01T07:47:56.433Z,0.65
2023-04-01T07:50:29.161Z,0.68
2023-04-01T07:53:12.406Z,0.54
2023-04-01T07:55:50.796Z,0.67
2023-04-01T07:58:30.513Z,0.63
2023-04-01T08:01:08.120Z,0.65
2023-04-01T08:03:51.168Z,0.52
2023-04-01T08:06:26.764Z,0.60
2023-04-01T08:09:07.485Z,0.60
2023-04-01T08:11:51.893Z,0.60
2023-04-01T08:14:28.995Z,0.59
2023-04-01T08:17:04.044Z,0.60
2023-04-01T08:19:54.525Z,0.46
2023-04-01T08:22:28.992Z,0.50
2023-04-01T08:25:01.374Z,0.41
2023-04-01T08:27:38.387Z,0.57
2023-04-01T08:30:18.960Z,0.62
2023-04-01T08:32:53.139Z,0.52
2023-04-01T08:35:32.074Z,0.55
2023-04-01T08:38:08.020Z,0.55
2023-04-01T08:41:00.816Z,0.57
2023-04-01T08:44:05.570Z,0.54
2023-04-01T08:47:10.670Z,0.55
2023-04-01T08:50:15.030Z,0.57
2023-04-01T08:52:54.671Z,0.57
2023-04-01T08:55:46.872Z,0.47
2023-04-01T08:58:43.590Z,0.50
2023-04-01T09:01:31.956Z,0.57
2023-04-01T09:04:26.295Z,0.56
2023-04-01T09:07:12.898Z,0.54
2023-04-01T09:10:12.694Z,0.66
2023-04-01T09:13:15.352Z,0.71
2023-04-01T09:16:05.845Z,0.63
2023-04-01T09:19:20.958Z,0.57
2023-04-01T09:22:23.276Z,0.58
2023-04-01T09:25:23.144Z,0.63
2023-04-01T09:27:58.485Z,0.60
2023-04-01T09:31:01.713Z,0.62
2023-04-01T09:34:05.384Z,0.59
2023-04-01T09:36:46.265Z,0.51
2023-04-01T09:39:35.845Z,0.57
2023-04-01T09:42:44.570Z,0.56
2023-04-01T09:45:43.805Z,0.67
2023-04-01T09:48:28.365Z,0.97
2023-04-01T09:51:08.123Z,0.62
2023-04-01T09:53:57.551Z,0.68
2023-04-01T09:56:58.122Z,0.78
2023-04-01T09:59:50.722Z,0.71
2023-04-01T10:03:13.867Z,0.75
2023-04-01T10:06:14.224Z,0.83
2023-04-01T10:09:19.875Z,0.91
2023-04-01T10:12:35.681Z,0.82
2023-04-01T10:15:41.375Z,0.95
2023-04-01T10:18:42.119Z,0.95
2023-04-01T10:21:37.948Z,1.24
2023-04-01T10:24:33.800Z,1.50
2023-04-01T10:27:34.971Z,1.24
2023-04-01T10:30:48.247Z,1.16
2023-04-01T10:34:08.093Z,0.95
2023-04-01T10:36:53.299Z,0.95
2023-04-01T10:40:08.122Z,0.80
2023-04-01T10:43:17.112Z,1.17
2023-04-01T10:46:20.904Z,1.04
2023-04-01T10:49:21.213Z,1.06
2023-04-01T10:52:27.213Z,0.85
2023-04-01T10:55:28.681Z,0.77
2023-04-01T10:58:34.116Z,0.88
2023-04-01T11:01:28.676Z,0.91
2023-04-01T11:04:31.837Z,0.75
2023-04-01T11:07:55.809Z,0.91
2023-04-01T11:11:12.375Z,0.89
2023-04-01T11:14:23.876Z,1.26
2023-04-01T11:17:36.986Z,1.01
2023-04-01T11:20:27.223Z,0.74
2023-04-01T11:23:22.436Z,0.90
2023-04-01T11:26:05.917Z,0.88
2023-04-01T11:29:10.396Z,0.97
2023-04-01T11:31:52.131Z,1.06
2023-04-01T11:34:44.396Z,1.03
2023-04-01T11:37:28.347Z,0.69
2023-04-01T11:40:09.874Z,0.96
2023-04-01T11:42:48.342Z,0.85
2023-04-01T11:45:34.065Z,0.92
2023-04-01T11:48:30.080Z,0.70
2023-04-01T11:51:32.181Z,0.63
2023-04-01T11:54:15.901Z,0.82
2023-04-01T11:57:06.992Z,0.68
2023-04-01T12:00:02.987Z,0.46
2023-04-01T12:02:44.087Z,0.67
2023-04-01T12:05:40.039Z,0.79
2023-04-01T12:08:30.892Z,0.88
2023-04-01T12:11:11.025Z,0.63
2023-04-01T12:13:50.757Z,0.64
2023-04-01T12:16:47.157Z,0.63
2023-04-01T12:19:24.997Z,0.57
2023-04-01T12:22:21.119Z,0.68
2023-04-01T12:24:50.559Z,0.71
2023-04-01T12:27:40.900Z,0.63
2023-04-01T12:30:37.060Z,0.54
2023-04-01T12:33:38.416Z,0.68
2023-04-01T12:36:25.122Z,0.67
2023-04-01T12:39:22.363Z,0.50
2023-04-01T12:42:00.099Z,0.46
2023-04-01T12:44:50.962Z,0.46
2023-04-01T12:47:42.701Z,0.75
2023-04-01T12:50:27.716Z,0.59
2023-04-01T12:53:19.255Z,0.59
2023-04-01T12:55:47.263Z,0.87
2023-04-01T12:59:03.859Z,0.69
2023-04-01T13:02:01.279Z,0.76
2023-04-01T13:04:49.899Z,0.93
2023-04-01T13:07:35.984Z,0.68
2023-04-01T13:10:14.719Z,0.69
2023-04-01T13:13:09.201Z,0.91
2023-04-01T13:15:44.276Z,0.89
2023-04-01T13:18:27.197Z,0.60
2023-04-01T13:21:07.083Z,0.84
2023-04-01T13:23:55.986Z,0.68
2023-04-01T13:26:33.034Z,0.55
2023-04-01T13:29:10.612Z,0.75
2023-04-01T13:31:51.095Z,0.72
2023-04-01T13:34:35.851Z,0.63
2023-04-01T13:37:20.692Z,0.75
2023-04-01T13:40:03.525Z,0.66
2023-04-01T13:42:38.978Z,0.68
2023-04-01T13:45:16.628Z,0.67
2023-04-01T13:48:31.116Z,0.61
2023-04-01T13:51:21.955Z,0.39
2023-04-01T13:54:23.575Z,0.63
2023-04-01T13:57:09.196Z,0.63
2023-04-01T14:00:04.667Z,0.73
2023-04-01T14:03:15.127Z,0.64
2023-04-01T14:06:07.094Z,0.61
2023-04-01T14:08:52.804Z,0.60
2023-04-01T14:11:31.959Z,0.56
2023-04-01T14:14:14.784Z,0.70
2023-04-01T14:17:11.552Z,0.56
2023-04-01T14:20:04.079Z,0.51
2023-04-01T14:22:40.026Z,0.45
2023-04-01T14:25:39.681Z,0.47
2023-04-01T14:28:24.091Z,0.58
2023-04-01T14:31:19.691Z,0.63
2023-04-01T14:34:01.535Z,0.47
2023-04-01T14:36:46.112Z,0.50
2023-04-01T14:39:35.109Z,0.60
2023-04-01T14:42:22.680Z,0.53
2023-04-01T14:45:18.855Z,0.75
2023-04-01T14:47:53.210Z,0.75
2023-04-01T14:50:24.820Z,1.26
2023-04-01T14:53:01.195Z,2.07
2023-04-01T14:55:45.540Z,2.67
2023-04-01T14:58:17.451Z,3.46
2023-04-01T15:01:02.188Z,2.07
2023-04-01T15:03:35.392Z,1.22
2023-04-01T15:06:39.877Z,0.91
2023-04-01T15:09:21.296Z,0.92
2023-04-01T15:12:02.898Z,0.66
2023-04-01T15:14:59.637Z,1.22
2023-04-01T15:17:56.854Z,1.54
2023-04-01T15:21:05.354Z,2.34
2023-04-01T15:23:46.315Z,1.78
2023-04-01T15:26:36.556Z,2.62
2023-04-01T15:29:31.137Z,2.04
2023-04-01T15:32:08.835Z,1.07
2023-04-01T15:34:51.617Z,0.96
2023-04-01T15:37:33.524Z,1.04
2023-04-01T15:40:19.562Z,2.53
2023-04-01T15:43:07.549Z,1.04
2023-04-01T15:45:50.283Z,1.09
2023-04-01T15:48:42.118Z,1.60
2023-04-01T15:51:23.718Z,2.22
2023-04-01T15:54:07.761Z,2.17
2023-04-01T15:57:03.825Z,2.53
2023-04-01T16:00:05.728Z,1.64
2023-04-01T16:02:43.176Z,1.68
2023-04-01T16:05:35.934Z,1.20
2023-04-01T16:08:23.914Z,0.99
2023-04-01T16:11:05.022Z,1.05
2023-04-01T16:13:48.361Z,1.57
2023-04-01T16:16:29.997Z,1.84
2023-04-01T16:19:23.647Z,1.41
2023-04-01T16:22:01.643Z,1.21
2023-04-01T16:24:40.052Z,0.84
2023-04-01T16:27:16.406Z,0.82
2023-04-01T16:29:50.886Z,1.03
2023-04-01T16:32:37.337Z,0.95
2023-04-01T16:35:26.296Z,0.91
2023-04-01T16:38:00.314Z,1.17
2023-04-01T16:40:45.808Z,0.68
2023-04-01T16:43:24.531Z,0.62
2023-04-01T16:46:18.474Z,0.84
2023-04-01T16:48:59.810Z,0.82
2023-04-01T16:51:33.856Z,0.92
2023-04-01T16:54:07.590Z,1.52
2023-04-01T16:56:46.149Z,2.20
2023-04-01T16:59:23.671Z,1.47
2023-04-01T17:01:56.770Z,1.34
2023-04-01T17:04:35.826Z,1.12
2023-04-01T17:07:16.431Z,1.09
2023-04-01T17:10:03.365Z,1.20
2023-04-01T17:12:46.049Z,1.41
2023-04-01T17:15:30.665Z,1.99
2023-04-01T17:18:10.096Z,2.86
2023-04-01T17:20:44.385Z,1.84
2023-04-01T17:23:22.011Z,1.72
2023-04-01T17:26:07.201Z,1.96
2023-04-01T17:28:50.117Z,2.04
2023-04-01T17:31:33.769Z,1.72
2023-04-01T17:34:24.629Z,1.92
2023-04-01T17:37:17.244Z,1.56
2023-04-01T17:40:00.146Z,1.58
2023-04-01T17:42:41.143Z,1.54
2023-04-01T17:45:22.598Z,1.31
2023-04-01T17:48:17.314Z,1.16
2023-04-01T17:51:32.614Z,1.11
2023-04-01T17:54:30.590Z,0.85
2023-04-01T17:57:24.873Z,1.08
2023-04-01T18:00:17.235Z,1.13
2023-04-01T18:03:01.989Z,0.82
2023-04-01T18:05:44.817Z,0.77
2023-04-01T18:08:25.637Z,0.85
2023-04-01T18:11:06.778Z,1.19
2023-04-01T18:13:51.383Z,1.07
2023-04-01T18:16:44.280Z,1.04
2023-04-01T18:19:27.296Z,1.00
2023-04-01T18:22:10.767Z,0.97
2023-04-01T18:24:46.849Z,1.12
2023-04-01T18:27:19.896Z,0.98
2023-04-01T18:29:53.423Z,0.85
2023-04-01T18:32:35.921Z,0.91
2023-04-01T18:35:20.994Z,0.97
2023-04-01T18:37:58.787Z,0.95
2023-04-01T18:40:33.804Z,0.82
2023-04-01T18:43:18.234Z,0.80
2023-04-01T18:45:55.105Z,0.96
2023-04-01T18:48:44.832Z,1.30
2023-04-01T18:51:18.574Z,1.30
2023-04-01T18:53:55.966Z,0.94
2023-04-01T18:56:31.733Z,0.91
2023-04-01T18:59:08.112Z,1.15
2023-04-01T19:01:43.078Z,1.21
2023-04-01T19:04:20.214Z,1.64
2023-04-01T19:06:51.993Z,1.40
2023-04-01T19:09:24.756Z,1.27
2023-04-01T19:12:27.249Z,1.62
2023-04-01T19:15:20.661Z,1.58
2023-04-01T19:18:03.560Z,1.60
2023-04-01T19:20:38.791Z,2.20
2023-04-01T19:23:41.751Z,1.85
2023-04-01T19:26:22.155Z,1.30
2023-04-01T19:28:59.961Z,1.31
2023-04-01T19:31:51.874Z,1.29
2023-04-01T19:34:35.750Z,1.35
2023-04-01T19:37:12.853Z,1.27
2023-04-01T19:39:55.293Z,1.19
2023-04-01T19:42:39.260Z,1.07
2023-04-01T19:45:27.475Z,1.24
2023-04-01T19:48:06.782Z,1.26
2023-04-01T19:50:45.731Z,1.27
2023-04-01T19:53:27.066Z,1.25
2023-04-01T19:56:07.980Z,1.25
2023-04-01T19:58:46.499Z,1.17
2023-04-01T20:01:21.990Z,0.99
2023-04-01T20:03:56.672Z,1.06
2023-04-01T20:06:33.893Z,1.02
2023-04-01T20:09:26.038Z,1.24
2023-04-01T20:12:04.936Z,1.16
2023-04-01T20:14:45.216Z,1.00
2023-04-01T20:17:22.821Z,1.13
2023-04-01T20:20:00.272Z,1.16
2023-04-01T20:22:56.774Z,0.98
2023-04-01T20:25:31.277Z,1.10
2023-04-01T20:28:05.978Z,1.13
2023-04-01T20:31:02.350Z,1.11
2023-04-01T20:34:22.975Z,1.34
2023-04-01T20:37:09.606Z,1.17
2023-04-01T20:40:11.317Z,1.26
2023-04-01T20:43:06.131Z,1.18
2023-04-01T20:45:42.225Z,1.18
2023-04-01T20:48:51.186Z,1.18
2023-04-01T20:51:26.737Z,1.28
2023-04-01T20:54:13.735Z,1.19
2023-04-01T20:57:01.974Z,1.29
2023-04-01T20:59:53.481Z,1.22
2023-04-01T21:03:02.737Z,1.34
2023-04-01T21:05:56.794Z,1.16
2023-04-01T21:08:37.546Z,1.22
2023-04-01T21:11:16.337Z,1.23
2023-04-01T21:14:02.797Z,1.25
2023-04-01T21:16:45.217Z,1.44
2023-04-01T21:19:42.135Z,1.49
2023-04-01T21:22:37.878Z,1.20
2023-04-01T21:25:27.673Z,1.57
2023-04-01T21:28:16.620Z,1.64
2023-04-01T21:31:00.781Z,1.20
2023-04-01T21:33:47.074Z,1.12
2023-04-01T21:36:39.225Z,0.98
2023-04-01T21:39:23.078Z,1.25
2023-04-01T21:42:05.475Z,1.21
2023-04-01T21:44:59.248Z,1.27
2023-04-01T21:48:13.745Z,1.15
2023-04-01T21:51:02.421Z,1.26
2023-04-01T21:54:07.408Z,1.41
2023-04-01T21:57:16.708Z,1.49
2023-04-01T22:00:10.073Z,1.16
2023-04-01T22:03:08.273Z,1.59
2023-04-01T22:05:49.151Z,1.22
2023-04-01T22:08:37.695Z,1.07
2023-04-01T22:11:18.511Z,1.03
2023-04-01T22:13:51.560Z,0.95
2023-04-01T22:16:28.560Z,1.13
2023-04-01T22:19:07.519Z,1.15
2023-04-01T22:21:45.583Z,1.14
2023-04-01T22:24:24.214Z,0.98
2023-04-01T22:27:02.712Z,1.05
2023-04-01T22:29:43.029Z,1.15
2023-04-01T22:32:16.950Z,1.18
2023-04-01T22:34:54.470Z,1.47
2023-04-01T22:37:30.654Z,1.26
2023-04-01T22:40:18.282Z,1.62
2023-04-01T22:42:49.012Z,2.03
2023-04-01T22:45:38.954Z,1.55
2023-04-01T22:48:15.872Z,1.27
2023-04-01T22:50:54.236Z,1.36
2023-04-01T22:53:39.371Z,1.25
2023-04-01T22:56:17.008Z,1.30
2023-04-01T22:58:53.332Z,1.23
2023-04-01T23:01:28.610Z,1.18
2023-04-01T23:03:59.232Z,1.14
2023-04-01T23:06:32.378Z,1.15
2023-04-01T23:09:08.715Z,1.15
2023-04-01T23:11:45.710Z,1.15
2023-04-01T23:14:38.955Z,1.02
2023-04-01T23:17:43.553Z,0.98
2023-04-01T23:20:30.499Z,1.07
2023-04-01T23:23:22.140Z,1.18
2023-04-01T23:26:03.781Z,1.07
2023-04-01T23:28:50.875Z,1.18
2023-04-01T23:31:34.074Z,1.17
2023-04-01T23:34:21.197Z,0.95
2023-04-01T23:36:51.514Z,1.03
2023-04-01T23:39:25.354Z,0.99
2023-04-01T23:41:56.231Z,1.01
2023-04-01T23:44:27.539Z,1.03
2023-04-01T23:46:56.511Z,1.12
2023-04-01T23:49:31.486Z,1.12
2023-04-01T23:52:03.076Z,1.15
2023-04-01T23:54:39.971Z,1.26
2023-04-01T23:57:14.776Z,1.13
2023-04-01T23:59:42.204Z,1.07
